Time;durP1;ratioP1;P1;durP2;ratioP2;P2;SDS_P1;SDS_P2;PMS_P1;PMS_P2;Temp;Humidity;BMP_temperature;BMP_pressure;BME280_temperature;BME280_humidity;BME280_pressure;Samples;Min_cycle;Max_cycle;Signal;HPM_P1;HPM_P2
2023/05/07 00:00:00;;;;;;;20.90;13.30;;;;;;;;;;759238;180;918574;-71
2023/05/07 00:02:25;;;;;;;21.23;12.80;;;;;;;;;;757613;181;918514;-71
2023/05/07 00:04:51;;;;;;;19.07;11.93;;;;;;;;;;765719;180;917460;-70
2023/05/07 00:07:17;;;;;;;23.58;14.27;;;;;;;;;;761248;180;940239;-70
2023/05/07 00:09:43;;;;;;;20.40;14.40;;;;;;;;;;760250;181;918771;-71
2023/05/07 00:12:09;;;;;;;18.27;13.43;;;;;;;;;;766749;181;813494;-71
2023/05/07 00:14:35;;;;;;;20.00;13.43;;;;;;;;;;748332;186;918899;-71
2023/05/07 00:17:01;;;;;;;17.37;12.80;;;;;;;;;;758743;183;919404;-71
2023/05/07 00:19:27;;;;;;;19.30;14.07;;;;;;;;;;761306;181;938657;-70
2023/05/07 00:21:55;;;;;;;19.67;13.63;;;;;;;;;;765180;180;919381;-71
2023/05/07 00:24:20;;;;;;;22.10;13.80;;;;;;;;;;768095;180;888859;-71
2023/05/07 00:26:45;;;;;;;20.83;14.20;;;;;;;;;;764372;180;816370;-71
2023/05/07 00:29:11;;;;;;;23.00;13.97;;;;;;;;;;757540;182;922975;-70
2023/05/07 00:31:37;;;;;;;19.50;13.67;;;;;;;;;;759385;181;921180;-71
2023/05/07 00:34:04;;;;;;;19.77;12.70;;;;;;;;;;765942;181;917302;-71
2023/05/07 00:36:30;;;;;;;20.30;14.23;;;;;;;;;;766523;183;932252;-71
2023/05/07 00:38:55;;;;;;;22.40;14.33;;;;;;;;;;761695;183;918500;-71
2023/05/07 00:41:22;;;;;;;23.17;14.70;;;;;;;;;;755118;181;930125;-71
2023/05/07 00:43:47;;;;;;;20.37;15.30;;;;;;;;;;768749;181;917947;-71
2023/05/07 00:46:13;;;;;;;23.00;14.80;;;;;;;;;;764813;181;919192;-71
2023/05/07 00:48:39;;;;;;;29.33;16.67;;;;;;;;;;762111;181;918093;-71
2023/05/07 00:51:05;;;;;;;21.50;15.00;;;;;;;;;;768422;181;918857;-71
2023/05/07 00:53:31;;;;;;;21.47;14.33;;;;;;;;;;759310;183;918130;-71
2023/05/07 00:55:56;;;;;;;25.30;15.03;;;;;;;;;;758448;181;916761;-71
2023/05/07 00:58:22;;;;;;;22.93;15.90;;;;;;;;;;765169;182;918864;-71
2023/05/07 01:00:48;;;;;;;24.80;15.77;;;;;;;;;;756854;181;815909;-71
2023/05/07 01:03:14;;;;;;;22.83;15.00;;;;;;;;;;769269;180;816654;-71
2023/05/07 01:05:40;;;;;;;28.43;15.83;;;;;;;;;;758664;183;918273;-71
2023/05/07 01:08:06;;;;;;;22.80;15.53;;;;;;;;;;769217;180;916087;-71
2023/05/07 01:10:31;;;;;;;22.63;15.07;;;;;;;;;;762621;180;916369;-71
2023/05/07 01:12:57;;;;;;;26.80;16.03;;;;;;;;;;760905;183;920160;-72
2023/05/07 01:15:23;;;;;;;29.43;13.17;;;;;;;;;;770380;180;816064;-71
2023/05/07 01:17:49;;;;;;;25.03;15.10;;;;;;;;;;768066;180;919551;-72
2023/05/07 01:20:15;;;;;;;21.27;13.80;;;;;;;;;;760579;180;917363;-72
2023/05/07 01:22:41;;;;;;;19.03;12.43;;;;;;;;;;771551;181;818478;-72
2023/05/07 01:25:07;;;;;;;24.30;15.90;;;;;;;;;;764146;183;915070;-71
2023/05/07 01:27:33;;;;;;;29.17;15.93;;;;;;;;;;757126;182;919028;-71
2023/05/07 01:29:59;;;;;;;25.70;12.97;;;;;;;;;;761041;181;918674;-72
2023/05/07 01:32:30;;;;;;;27.70;15.53;;;;;;;;;;758669;180;823892;-71
2023/05/07 01:34:56;;;;;;;23.23;14.37;;;;;;;;;;741643;186;918054;-71
2023/05/07 01:37:22;;;;;;;26.63;13.70;;;;;;;;;;736820;187;919123;-72
2023/05/07 01:39:48;;;;;;;20.80;11.50;;;;;;;;;;747404;187;1021470;-71
2023/05/07 01:42:14;;;;;;;24.60;13.45;;;;;;;;;;744487;187;919030;-72
2023/05/07 01:44:40;;;;;;;22.40;13.93;;;;;;;;;;742135;187;894125;-71
2023/05/07 01:47:05;;;;;;;24.20;14.07;;;;;;;;;;762490;183;917229;-72
2023/05/07 01:49:31;;;;;;;23.43;14.67;;;;;;;;;;752041;184;919103;-72
2023/05/07 01:51:57;;;;;;;22.50;13.20;;;;;;;;;;744723;187;917478;-71
2023/05/07 01:54:25;;;;;;;19.87;12.43;;;;;;;;;;743686;186;824295;-72
2023/05/07 01:56:51;;;;;;;21.30;13.43;;;;;;;;;;736646;189;864471;-71
2023/05/07 01:59:16;;;;;;;16.87;13.00;;;;;;;;;;762363;183;894686;-71
2023/05/07 02:01:42;;;;;;;20.37;13.47;;;;;;;;;;761946;181;918755;-72
2023/05/07 02:04:08;;;;;;;26.90;14.47;;;;;;;;;;761661;180;814707;-72
2023/05/07 02:06:34;;;;;;;21.33;10.68;;;;;;;;;;764537;180;919278;-72
2023/05/07 02:09:00;;;;;;;17.47;10.93;;;;;;;;;;752842;181;919749;-72
2023/05/07 02:11:26;;;;;;;18.80;12.20;;;;;;;;;;764227;181;919200;-73
2023/05/07 02:13:52;;;;;;;20.33;13.50;;;;;;;;;;770757;181;919025;-71
2023/05/07 02:16:19;;;;;;;21.30;13.20;;;;;;;;;;761759;182;917040;-72
2023/05/07 02:18:43;;;;;;;26.33;13.70;;;;;;;;;;764165;182;919986;-72
2023/05/07 02:21:09;;;;;;;19.33;12.67;;;;;;;;;;760739;182;918624;-71
2023/05/07 02:23:35;;;;;;;21.93;14.57;;;;;;;;;;755127;181;815656;-72
2023/05/07 02:26:01;;;;;;;17.83;11.90;;;;;;;;;;747564;186;933969;-72
2023/05/07 02:28:27;;;;;;;18.10;10.53;;;;;;;;;;763664;182;919132;-70
2023/05/07 02:30:52;;;;;;;22.85;12.50;;;;;;;;;;763725;180;918286;-72
2023/05/07 02:33:18;;;;;;;18.53;12.97;;;;;;;;;;766045;181;919260;-71
2023/05/07 02:35:44;;;;;;;24.60;14.37;;;;;;;;;;756402;182;912890;-72
2023/05/07 02:38:10;;;;;;;22.53;13.57;;;;;;;;;;744463;186;824451;-72
2023/05/07 02:40:38;;;;;;;24.17;12.70;;;;;;;;;;739468;187;897152;-71
2023/05/07 02:43:02;;;;;;;22.27;13.07;;;;;;;;;;743899;187;917871;-71
2023/05/07 02:45:28;;;;;;;22.83;13.40;;;;;;;;;;765817;181;883370;-73
2023/05/07 02:47:53;;;;;;;21.27;13.80;;;;;;;;;;764447;181;921215;-71
2023/05/07 02:50:19;;;;;;;19.53;12.43;;;;;;;;;;746025;186;815059;-71
2023/05/07 02:52:45;;;;;;;19.10;13.47;;;;;;;;;;763923;180;714245;-72
2023/05/07 02:55:11;;;;;;;19.23;12.27;;;;;;;;;;747130;186;818431;-71
2023/05/07 02:57:37;;;;;;;22.10;14.80;;;;;;;;;;759173;183;918972;-72
2023/05/07 03:00:09;;;;;;;23.23;13.33;;;;;;;;;;761857;183;933747;-71
2023/05/07 03:02:34;;;;;;;24.87;14.60;;;;;;;;;;760073;183;916992;-71
2023/05/07 03:05:01;;;;;;;22.90;13.83;;;;;;;;;;742740;186;917151;-71
2023/05/07 03:07:26;;;;;;;24.53;15.07;;;;;;;;;;763912;180;914059;-72
2023/05/07 03:09:53;;;;;;;17.20;9.77;;;;;;;;;;763815;180;927932;-72
2023/05/07 03:12:18;;;;;;;20.33;14.30;;;;;;;;;;760812;181;927697;-71
2023/05/07 03:14:44;;;;;;;20.27;12.70;;;;;;;;;;754350;183;917672;-71
2023/05/07 03:17:10;;;;;;;23.97;13.53;;;;;;;;;;765287;181;776554;-71
2023/05/07 03:19:35;;;;;;;25.03;14.50;;;;;;;;;;765945;181;827573;-71
2023/05/07 03:22:01;;;;;;;22.87;13.10;;;;;;;;;;757783;181;917791;-71
2023/05/07 03:24:27;;;;;;;23.27;13.17;;;;;;;;;;766837;181;816323;-71
2023/05/07 03:26:53;;;;;;;26.43;15.40;;;;;;;;;;771575;182;809100;-71
2023/05/07 03:29:19;;;;;;;23.20;13.10;;;;;;;;;;758743;182;1017142;-71
2023/05/07 03:31:45;;;;;;;21.63;13.03;;;;;;;;;;760673;180;920052;-72
2023/05/07 03:34:11;;;;;;;26.07;15.80;;;;;;;;;;762856;183;916142;-71
2023/05/07 03:36:37;;;;;;;20.60;13.30;;;;;;;;;;761676;181;817331;-71
2023/05/07 03:39:02;;;;;;;21.53;12.70;;;;;;;;;;763428;180;839705;-72
2023/05/07 03:41:29;;;;;;;21.47;9.10;;;;;;;;;;767787;180;916783;-71
2023/05/07 03:43:54;;;;;;;23.70;14.17;;;;;;;;;;765268;180;917996;-71
2023/05/07 03:46:20;;;;;;;19.50;14.07;;;;;;;;;;762127;180;911966;-71
2023/05/07 03:48:46;;;;;;;17.50;11.70;;;;;;;;;;765840;181;918285;-71
2023/05/07 03:51:12;;;;;;;26.33;15.37;;;;;;;;;;760756;182;918535;-71
2023/05/07 03:53:37;;;;;;;19.60;12.17;;;;;;;;;;758540;183;862288;-71
2023/05/07 03:56:03;;;;;;;18.50;10.90;;;;;;;;;;758335;184;915379;-72
2023/05/07 03:58:29;;;;;;;20.23;13.13;;;;;;;;;;766706;181;919599;-72
2023/05/07 04:00:55;;;;;;;23.30;13.03;;;;;;;;;;760072;181;821698;-71
2023/05/07 04:03:21;;;;;;;14.65;9.27;;;;;;;;;;730149;187;936203;-71
2023/05/07 04:05:47;;;;;;;22.03;14.13;;;;;;;;;;766747;181;950310;-71
2023/05/07 04:08:13;;;;;;;23.30;14.80;;;;;;;;;;753169;181;918344;-71
2023/05/07 04:10:39;;;;;;;21.85;11.85;;;;;;;;;;762252;181;915920;-71
2023/05/07 04:13:05;;;;;;;20.00;13.80;;;;;;;;;;761575;181;920203;-71
2023/05/07 04:15:30;;;;;;;21.37;13.63;;;;;;;;;;755629;181;916421;-71
2023/05/07 04:17:56;;;;;;;24.00;13.70;;;;;;;;;;755977;180;920462;-71
2023/05/07 04:20:22;;;;;;;21.37;13.07;;;;;;;;;;759659;181;859300;-72
2023/05/07 04:22:48;;;;;;;28.00;14.10;;;;;;;;;;764747;182;914483;-72
2023/05/07 04:25:14;;;;;;;23.40;14.03;;;;;;;;;;762950;181;822520;-71
2023/05/07 04:27:40;;;;;;;19.77;11.83;;;;;;;;;;756593;181;919566;-71
2023/05/07 04:30:06;;;;;;;22.70;14.03;;;;;;;;;;759793;181;972632;-71
2023/05/07 04:32:32;;;;;;;22.00;14.70;;;;;;;;;;760299;181;918184;-71
2023/05/07 04:34:58;;;;;;;18.10;12.70;;;;;;;;;;762808;181;828246;-71
2023/05/07 04:37:24;;;;;;;21.60;14.97;;;;;;;;;;764374;183;986423;-71
2023/05/07 04:39:49;;;;;;;17.47;8.13;;;;;;;;;;769405;180;807466;-72
2023/05/07 04:42:15;;;;;;;18.98;12.37;;;;;;;;;;763466;180;912194;-72
2023/05/07 04:44:42;;;;;;;17.33;10.00;;;;;;;;;;764239;180;913801;-71
2023/05/07 04:47:07;;;;;;;16.73;11.73;;;;;;;;;;764773;182;920414;-72
2023/05/07 04:49:33;;;;;;;17.80;11.77;;;;;;;;;;757776;184;888543;-71
2023/05/07 04:51:59;;;;;;;17.63;9.90;;;;;;;;;;759266;183;910695;-72
2023/05/07 04:54:26;;;;;;;18.50;12.60;;;;;;;;;;763088;180;918335;-71
2023/05/07 04:56:51;;;;;;;17.50;10.87;;;;;;;;;;738255;186;917918;-72
2023/05/07 04:59:17;;;;;;;20.40;12.83;;;;;;;;;;738606;188;914004;-72
2023/05/07 05:01:45;;;;;;;17.97;10.40;;;;;;;;;;761749;183;835557;-71
2023/05/07 05:04:10;;;;;;;16.23;11.13;;;;;;;;;;755189;181;1591236;-72
2023/05/07 05:06:36;;;;;;;13.90;9.65;;;;;;;;;;761427;180;906252;-72
2023/05/07 05:09:04;;;;;;;11.45;8.02;;;;;;;;;;761252;181;921725;-73
2023/05/07 05:11:29;;;;;;;13.40;10.13;;;;;;;;;;767956;182;1112917;-72
2023/05/07 05:13:55;;;;;;;13.73;10.50;;;;;;;;;;759737;183;886226;-72
2023/05/07 05:16:21;;;;;;;15.15;10.65;;;;;;;;;;763364;181;852971;-72
2023/05/07 05:18:46;;;;;;;16.10;9.63;;;;;;;;;;770791;183;909533;-72
2023/05/07 05:21:12;;;;;;;9.97;8.07;;;;;;;;;;759523;181;817033;-72
2023/05/07 05:23:38;;;;;;;15.13;10.65;;;;;;;;;;763925;181;913168;-72
2023/05/07 05:26:04;;;;;;;15.40;10.90;;;;;;;;;;764083;181;945420;-72
2023/05/07 05:28:30;;;;;;;9.50;7.60;;;;;;;;;;757473;181;828055;-71
2023/05/07 05:30:56;;;;;;;22.67;13.00;;;;;;;;;;757588;181;914312;-71
2023/05/07 05:33:22;;;;;;;17.70;10.87;;;;;;;;;;769326;180;724105;-72
2023/05/07 05:35:48;;;;;;;14.80;8.97;;;;;;;;;;760097;180;969446;-72
2023/05/07 05:38:13;;;;;;;18.42;11.52;;;;;;;;;;764160;180;892206;-72
2023/05/07 05:40:40;;;;;;;22.33;9.10;;;;;;;;;;755604;180;2214952;-72
2023/05/07 05:43:05;;;;;;;12.73;9.10;;;;;;;;;;769890;180;895050;-71
2023/05/07 05:45:31;;;;;;;12.30;7.70;;;;;;;;;;762220;181;917121;-72
2023/05/07 05:47:57;;;;;;;15.33;9.27;;;;;;;;;;767967;180;709161;-72
2023/05/07 05:50:23;;;;;;;12.90;8.90;;;;;;;;;;776886;182;968593;-71
2023/05/07 05:52:49;;;;;;;16.23;6.83;;;;;;;;;;764480;183;811322;-70
2023/05/07 05:55:15;;;;;;;10.37;6.67;;;;;;;;;;759176;180;1151852;-71
2023/05/07 05:57:41;;;;;;;7.97;5.40;;;;;;;;;;753497;180;3526982;-71
2023/05/07 06:00:07;;;;;;;10.43;6.83;;;;;;;;;;761587;181;918628;-71
2023/05/07 06:02:33;;;;;;;9.57;6.00;;;;;;;;;;762712;183;921653;-72
2023/05/07 06:04:59;;;;;;;10.17;6.60;;;;;;;;;;763470;180;818097;-72
2023/05/07 06:07:25;;;;;;;10.77;7.47;;;;;;;;;;754922;184;883348;-71
2023/05/07 06:09:51;;;;;;;11.13;6.57;;;;;;;;;;757477;182;919502;-71
2023/05/07 06:12:17;;;;;;;10.50;7.87;;;;;;;;;;763387;181;918822;-71
2023/05/07 06:14:42;;;;;;;6.80;5.30;;;;;;;;;;762644;183;817460;-71
2023/05/07 06:17:08;;;;;;;12.00;6.13;;;;;;;;;;764952;181;918889;-71
2023/05/07 06:19:34;;;;;;;10.50;6.97;;;;;;;;;;751478;182;875742;-72
2023/05/07 06:22:01;;;;;;;10.17;7.07;;;;;;;;;;767852;181;816164;-71
2023/05/07 06:24:26;;;;;;;8.83;5.77;;;;;;;;;;758378;181;922457;-71
2023/05/07 06:26:52;;;;;;;9.00;7.10;;;;;;;;;;755752;181;824539;-71
2023/05/07 06:29:18;;;;;;;11.43;6.63;;;;;;;;;;759797;181;831636;-71
2023/05/07 06:31:44;;;;;;;11.00;7.07;;;;;;;;;;762045;183;880985;-71
2023/05/07 06:34:09;;;;;;;9.63;6.70;;;;;;;;;;743499;187;918897;-71
2023/05/07 06:36:35;;;;;;;11.70;7.97;;;;;;;;;;760031;181;917672;-72
2023/05/07 06:39:01;;;;;;;9.27;6.97;;;;;;;;;;762956;181;844660;-71
2023/05/07 06:41:27;;;;;;;9.27;4.93;;;;;;;;;;771793;180;803437;-72
2023/05/07 06:43:53;;;;;;;9.27;6.90;;;;;;;;;;763026;181;920803;-72
2023/05/07 06:46:19;;;;;;;11.27;8.87;;;;;;;;;;760664;183;713749;-72
2023/05/07 06:48:45;;;;;;;10.47;7.17;;;;;;;;;;760367;181;821460;-71
2023/05/07 06:51:10;;;;;;;10.20;5.77;;;;;;;;;;754194;181;857162;-70
2023/05/07 06:53:36;;;;;;;10.57;6.97;;;;;;;;;;743354;188;916738;-72
2023/05/07 06:56:02;;;;;;;10.00;7.23;;;;;;;;;;762311;181;918881;-71
2023/05/07 06:58:28;;;;;;;10.83;7.37;;;;;;;;;;762196;180;791275;-72
2023/05/07 07:00:54;;;;;;;9.33;5.33;;;;;;;;;;757392;180;930355;-72
2023/05/07 07:03:20;;;;;;;8.73;5.80;;;;;;;;;;769547;180;915909;-72
2023/05/07 07:05:46;;;;;;;10.73;6.37;;;;;;;;;;763714;180;816374;-72
2023/05/07 07:08:11;;;;;;;8.27;6.53;;;;;;;;;;731038;189;923703;-73
2023/05/07 07:10:37;;;;;;;17.00;7.30;;;;;;;;;;763103;183;811576;-72
2023/05/07 07:13:03;;;;;;;11.23;8.60;;;;;;;;;;758362;181;914652;-72
2023/05/07 07:15:29;;;;;;;8.53;4.90;;;;;;;;;;764643;180;817006;-72
2023/05/07 07:17:55;;;;;;;14.33;9.07;;;;;;;;;;764871;181;795602;-72
2023/05/07 07:20:21;;;;;;;11.70;7.97;;;;;;;;;;758152;181;911192;-72
2023/05/07 07:22:47;;;;;;;8.47;6.30;;;;;;;;;;757115;181;954163;-72
2023/05/07 07:25:13;;;;;;;10.43;5.40;;;;;;;;;;758203;181;942190;-72
2023/05/07 07:27:39;;;;;;;10.73;8.10;;;;;;;;;;767870;181;1206100;-72
2023/05/07 07:30:05;;;;;;;13.57;9.67;;;;;;;;;;763342;183;759511;-71
2023/05/07 07:32:33;;;;;;;15.77;7.30;;;;;;;;;;765775;183;708127;-72
2023/05/07 07:34:57;;;;;;;12.73;8.50;;;;;;;;;;768071;183;816406;-72
2023/05/07 07:37:25;;;;;;;13.50;7.60;;;;;;;;;;762257;180;814183;-71
2023/05/07 07:39:48;;;;;;;12.97;7.10;;;;;;;;;;767736;181;820256;-72
2023/05/07 07:42:14;;;;;;;8.40;4.97;;;;;;;;;;764406;183;1122910;-72
2023/05/07 07:44:40;;;;;;;9.30;5.70;;;;;;;;;;764893;181;652148;-71
2023/05/07 07:47:06;;;;;;;6.55;4.03;;;;;;;;;;765181;183;982449;-72
2023/05/07 07:49:32;;;;;;;9.53;6.43;;;;;;;;;;755826;183;753659;-72
2023/05/07 07:51:59;;;;;;;9.27;5.13;;;;;;;;;;765449;181;638481;-73
2023/05/07 07:54:23;;;;;;;9.10;5.83;;;;;;;;;;767959;181;624413;-72
2023/05/07 07:56:49;;;;;;;7.10;5.00;;;;;;;;;;767405;180;815647;-74
2023/05/07 07:59:18;;;;;;;8.03;5.30;;;;;;;;;;764240;181;638806;-71
2023/05/07 08:01:41;;;;;;;5.90;4.40;;;;;;;;;;765521;180;631371;-72
2023/05/07 08:04:07;;;;;;;6.60;4.90;;;;;;;;;;763633;181;919461;-71
2023/05/07 08:06:33;;;;;;;5.53;4.40;;;;;;;;;;767601;181;690586;-71
2023/05/07 08:08:59;;;;;;;10.57;3.30;;;;;;;;;;765634;181;831253;-71
2023/05/07 08:11:25;;;;;;;7.37;3.40;;;;;;;;;;765990;180;916606;-71
2023/05/07 08:13:50;;;;;;;5.50;3.00;;;;;;;;;;765707;180;774410;-70
2023/05/07 08:16:16;;;;;;;7.80;3.40;;;;;;;;;;759085;180;918802;-72
2023/05/07 08:18:42;;;;;;;5.33;3.80;;;;;;;;;;766467;180;815724;-71
2023/05/07 08:21:08;;;;;;;8.90;4.63;;;;;;;;;;762833;180;925252;-72
2023/05/07 08:23:34;;;;;;;5.90;4.07;;;;;;;;;;765329;181;677867;-72
2023/05/07 08:26:00;;;;;;;4.07;2.87;;;;;;;;;;746320;187;630469;-72
2023/05/07 08:28:26;;;;;;;4.90;3.70;;;;;;;;;;762896;183;716913;-72
2023/05/07 08:30:51;;;;;;;4.50;3.23;;;;;;;;;;770178;183;918365;-72
2023/05/07 08:33:17;;;;;;;5.53;3.80;;;;;;;;;;763163;180;818293;-72
2023/05/07 08:35:43;;;;;;;5.80;3.10;;;;;;;;;;760049;180;1086256;-72
2023/05/07 08:38:09;;;;;;;4.80;3.00;;;;;;;;;;778680;180;815701;-72
2023/05/07 08:40:37;;;;;;;5.73;3.33;;;;;;;;;;765953;180;1369303;-71
2023/05/07 08:43:02;;;;;;;6.03;3.93;;;;;;;;;;755596;181;800062;-72
2023/05/07 08:45:28;;;;;;;5.97;3.67;;;;;;;;;;760930;180;919221;-73
2023/05/07 08:47:55;;;;;;;6.20;4.13;;;;;;;;;;766309;181;1039026;-71
2023/05/07 08:50:20;;;;;;;6.90;3.87;;;;;;;;;;762662;180;912757;-73
2023/05/07 08:52:46;;;;;;;6.60;3.77;;;;;;;;;;751859;183;918391;-72
2023/05/07 08:55:12;;;;;;;5.10;3.03;;;;;;;;;;767199;181;816166;-72
2023/05/07 08:57:38;;;;;;;6.10;3.67;;;;;;;;;;764383;181;817041;-71
2023/05/07 09:00:04;;;;;;;6.13;3.80;;;;;;;;;;760121;182;1025184;-73
2023/05/07 09:02:31;;;;;;;6.03;4.23;;;;;;;;;;771111;183;617794;-72
2023/05/07 09:05:00;;;;;;;7.10;4.50;;;;;;;;;;760573;183;918678;-71
2023/05/07 09:07:26;;;;;;;6.90;4.20;;;;;;;;;;762713;183;919103;-72
2023/05/07 09:09:51;;;;;;;8.30;5.23;;;;;;;;;;759090;181;1021002;-72
2023/05/07 09:12:17;;;;;;;7.37;4.90;;;;;;;;;;770464;181;631469;-72
2023/05/07 09:14:43;;;;;;;6.83;4.07;;;;;;;;;;766605;180;664025;-70
2023/05/07 09:17:09;;;;;;;7.43;5.17;;;;;;;;;;763067;181;919107;-72
2023/05/07 09:19:35;;;;;;;6.17;4.03;;;;;;;;;;751444;184;815704;-72
2023/05/07 09:22:01;;;;;;;9.20;5.33;;;;;;;;;;735041;188;712869;-71
2023/05/07 09:24:29;;;;;;;8.67;5.30;;;;;;;;;;765069;183;632459;-71
2023/05/07 09:26:53;;;;;;;12.85;7.35;;;;;;;;;;765442;183;820049;-73
2023/05/07 09:29:19;;;;;;;9.20;6.10;;;;;;;;;;773380;178;661728;-71
2023/05/07 09:31:45;;;;;;;9.27;6.60;;;;;;;;;;756409;178;630441;-72
2023/05/07 09:34:11;;;;;;;7.27;5.70;;;;;;;;;;761455;180;615608;-71
2023/05/07 09:36:36;;;;;;;11.83;6.70;;;;;;;;;;773543;183;623740;-71
2023/05/07 09:39:02;;;;;;;15.90;10.53;;;;;;;;;;769005;181;722885;-71
2023/05/07 09:41:28;;;;;;;9.88;7.20;;;;;;;;;;766664;180;848343;-72
2023/05/07 09:43:54;;;;;;;12.80;7.00;;;;;;;;;;750574;181;916955;-71
2023/05/07 09:46:24;;;;;;;9.40;6.43;;;;;;;;;;742632;187;918144;-70
2023/05/07 09:48:46;;;;;;;10.50;5.30;;;;;;;;;;725693;189;943934;-70
2023/05/07 09:51:12;;;;;;;12.70;6.90;;;;;;;;;;771034;180;819797;-72
2023/05/07 09:53:37;;;;;;;10.80;6.63;;;;;;;;;;763891;181;913315;-70
2023/05/07 09:56:03;;;;;;;9.13;6.43;;;;;;;;;;764895;181;816376;-70
2023/05/07 09:58:29;;;;;;;9.20;5.83;;;;;;;;;;757392;181;911450;-71
2023/05/07 10:00:55;;;;;;;10.10;6.53;;;;;;;;;;763724;181;922452;-69
2023/05/07 10:03:21;;;;;;;6.60;4.23;;;;;;;;;;757002;181;1019206;-69
2023/05/07 10:05:47;;;;;;;9.63;6.17;;;;;;;;;;764998;181;917174;-71
2023/05/07 10:08:13;;;;;;;8.10;5.00;;;;;;;;;;758507;184;915027;-71
2023/05/07 10:10:39;;;;;;;8.90;6.00;;;;;;;;;;761015;183;916847;-70
2023/05/07 10:13:09;;;;;;;7.65;5.07;;;;;;;;;;762996;181;918813;-70
2023/05/07 10:15:31;;;;;;;13.90;7.03;;;;;;;;;;754349;184;816650;-70
2023/05/07 10:17:57;;;;;;;9.13;5.80;;;;;;;;;;757773;183;814396;-70
2023/05/07 10:20:23;;;;;;;8.70;6.05;;;;;;;;;;756987;181;809806;-71
2023/05/07 10:22:49;;;;;;;11.83;7.50;;;;;;;;;;731016;190;916474;-72
2023/05/07 10:25:18;;;;;;;9.00;5.17;;;;;;;;;;755997;179;917843;-71
2023/05/07 10:27:44;;;;;;;6.40;4.50;;;;;;;;;;763972;183;826900;-69
2023/05/07 10:30:14;;;;;;;9.67;5.67;;;;;;;;;;756657;181;1738805;-70
2023/05/07 10:32:43;;;;;;;14.00;9.90;;;;;;;;;;763518;183;916966;-70
2023/05/07 10:35:09;;;;;;;10.40;7.60;;;;;;;;;;776054;177;942229;-69
2023/05/07 10:37:35;;;;;;;7.97;5.43;;;;;;;;;;760623;181;832588;-70
2023/05/07 10:40:01;;;;;;;10.50;6.15;;;;;;;;;;759988;180;867860;-71
2023/05/07 10:42:27;;;;;;;13.10;7.23;;;;;;;;;;768529;183;920070;-70
2023/05/07 10:44:53;;;;;;;9.83;6.83;;;;;;;;;;766627;180;920044;-71
2023/05/07 10:47:19;;;;;;;12.80;7.77;;;;;;;;;;758974;183;919219;-70
2023/05/07 10:49:59;;;;;;;13.07;8.70;;;;;;;;;;760220;182;832932;-71
2023/05/07 10:52:26;;;;;;;12.57;8.00;;;;;;;;;;772748;181;938294;-70
2023/05/07 10:54:58;;;;;;;11.50;8.23;;;;;;;;;;761544;181;821581;-71
2023/05/07 10:57:29;;;;;;;9.23;4.83;;;;;;;;;;756336;181;914555;-71
2023/05/07 10:59:55;;;;;;;10.80;6.13;;;;;;;;;;756385;181;914329;-71
2023/05/07 11:02:21;;;;;;;13.47;5.97;;;;;;;;;;761131;180;1632478;-71
2023/05/07 11:04:47;;;;;;;16.17;11.03;;;;;;;;;;760997;181;918623;-71
2023/05/07 11:07:13;;;;;;;13.23;8.70;;;;;;;;;;758162;181;914056;-71
2023/05/07 11:09:45;;;;;;;21.77;14.47;;;;;;;;;;761405;180;913521;-71
2023/05/07 11:12:10;;;;;;;11.77;7.87;;;;;;;;;;762659;182;920240;-71
2023/05/07 11:14:43;;;;;;;10.10;8.40;;;;;;;;;;757317;181;809756;-72
2023/05/07 11:17:09;;;;;;;10.80;8.50;;;;;;;;;;760634;181;917858;-71
2023/05/07 11:19:54;;;;;;;11.90;8.27;;;;;;;;;;762465;181;919098;-72
2023/05/07 11:22:25;;;;;;;7.10;5.33;;;;;;;;;;766241;180;918852;-72
2023/05/07 11:24:51;;;;;;;8.50;6.93;;;;;;;;;;760426;182;1124808;-71
2023/05/07 11:27:17;;;;;;;10.37;5.30;;;;;;;;;;762639;181;886294;-70
2023/05/07 11:29:43;;;;;;;7.72;6.50;;;;;;;;;;762872;181;903053;-70
2023/05/07 11:32:09;;;;;;;10.17;7.17;;;;;;;;;;765440;180;928920;-71
2023/05/07 11:34:35;;;;;;;10.47;7.33;;;;;;;;;;760251;181;915203;-70
2023/05/07 11:37:01;;;;;;;7.93;6.40;;;;;;;;;;764275;181;914457;-69
2023/05/07 11:39:28;;;;;;;5.93;4.20;;;;;;;;;;764619;180;917955;-69
2023/05/07 11:41:54;;;;;;;12.40;5.50;;;;;;;;;;756827;184;816063;-70
2023/05/07 11:44:19;;;;;;;7.78;5.30;;;;;;;;;;745514;185;814674;-70
2023/05/07 11:46:45;;;;;;;7.90;5.67;;;;;;;;;;761594;180;822806;-71
2023/05/07 11:49:11;;;;;;;8.10;6.30;;;;;;;;;;763521;182;920972;-71
2023/05/07 11:51:37;;;;;;;9.93;6.70;;;;;;;;;;766750;180;915703;-70
2023/05/07 11:54:08;;;;;;;8.00;6.53;;;;;;;;;;767990;180;1016404;-70
2023/05/07 11:56:30;;;;;;;8.33;6.30;;;;;;;;;;763417;181;914686;-70
2023/05/07 11:58:56;;;;;;;7.20;5.30;;;;;;;;;;744226;187;815451;-71
2023/05/07 12:01:21;;;;;;;7.30;5.97;;;;;;;;;;763408;180;825421;-70
2023/05/07 12:03:47;;;;;;;9.50;6.00;;;;;;;;;;768172;180;818682;-72
2023/05/07 12:06:13;;;;;;;7.03;6.10;;;;;;;;;;762641;181;910893;-71
2023/05/07 12:08:39;;;;;;;9.47;5.70;;;;;;;;;;760699;183;1016356;-71
2023/05/07 12:11:05;;;;;;;7.10;5.15;;;;;;;;;;755563;181;804162;-71
2023/05/07 12:13:31;;;;;;;8.27;6.40;;;;;;;;;;737937;189;912995;-71
2023/05/07 12:15:56;;;;;;;7.33;5.00;;;;;;;;;;735237;189;915414;-69
2023/05/07 12:18:22;;;;;;;8.20;4.87;;;;;;;;;;757132;183;919473;-71
2023/05/07 12:20:48;;;;;;;6.50;5.27;;;;;;;;;;762701;180;918471;-71
2023/05/07 12:23:14;;;;;;;8.87;6.77;;;;;;;;;;766579;181;918678;-71
2023/05/07 12:25:41;;;;;;;7.70;5.50;;;;;;;;;;762628;183;921174;-70
2023/05/07 12:28:06;;;;;;;6.00;5.00;;;;;;;;;;756287;182;918147;-71
2023/05/07 12:30:31;;;;;;;4.87;3.90;;;;;;;;;;769242;182;919432;-70
2023/05/07 12:32:57;;;;;;;6.57;4.63;;;;;;;;;;770264;180;817866;-70
2023/05/07 12:35:41;;;;;;;5.90;5.00;;;;;;;;;;757310;183;930932;-70
2023/05/07 12:38:08;;;;;;;6.23;5.00;;;;;;;;;;758962;181;922262;-70
2023/05/07 12:40:36;;;;;;;5.53;4.00;;;;;;;;;;769540;180;921635;-72
2023/05/07 12:43:02;;;;;;;5.13;3.87;;;;;;;;;;761955;173;918633;-70
2023/05/07 12:45:28;;;;;;;7.37;5.15;;;;;;;;;;765259;181;1008895;-70
2023/05/07 12:47:54;;;;;;;7.20;3.40;;;;;;;;;;766956;181;902238;-70
2023/05/07 12:50:20;;;;;;;6.67;5.40;;;;;;;;;;763109;181;918087;-70
2023/05/07 12:52:46;;;;;;;4.00;3.17;;;;;;;;;;760341;180;920239;-70
2023/05/07 12:55:12;;;;;;;5.67;4.33;;;;;;;;;;759273;180;926391;-71
2023/05/07 12:57:37;;;;;;;9.60;4.93;;;;;;;;;;772981;180;972015;-71
2023/05/07 13:00:04;;;;;;;4.97;4.17;;;;;;;;;;763756;180;1022013;-70
2023/05/07 13:02:32;;;;;;;7.63;5.80;;;;;;;;;;764535;180;918996;-71
2023/05/07 13:04:58;;;;;;;8.00;5.17;;;;;;;;;;774146;180;1010933;-70
2023/05/07 13:07:25;;;;;;;6.80;4.73;;;;;;;;;;764138;180;918234;-71
2023/05/07 13:09:51;;;;;;;8.70;5.40;;;;;;;;;;768438;180;1021225;-71
2023/05/07 13:12:17;;;;;;;10.47;5.90;;;;;;;;;;758482;182;936763;-73
2023/05/07 13:14:42;;;;;;;6.40;4.80;;;;;;;;;;758586;184;909659;-70
2023/05/07 13:17:08;;;;;;;6.03;4.40;;;;;;;;;;762693;182;874788;-70
2023/05/07 13:19:34;;;;;;;5.13;3.10;;;;;;;;;;758034;183;865079;-70
2023/05/07 13:22:00;;;;;;;4.90;3.23;;;;;;;;;;755948;185;779026;-70
2023/05/07 13:24:26;;;;;;;7.10;3.80;;;;;;;;;;747795;187;917551;-72
2023/05/07 13:26:52;;;;;;;5.63;4.00;;;;;;;;;;764854;181;916032;-69
2023/05/07 13:29:17;;;;;;;7.40;6.03;;;;;;;;;;766379;181;922915;-70
2023/05/07 13:31:43;;;;;;;5.43;3.83;;;;;;;;;;766845;181;816059;-70
2023/05/07 13:34:09;;;;;;;7.13;3.97;;;;;;;;;;762054;179;921264;-70
2023/05/07 13:36:37;;;;;;;14.37;6.60;;;;;;;;;;769755;181;916399;-70
2023/05/07 13:39:01;;;;;;;10.87;5.40;;;;;;;;;;755919;182;919927;-69
2023/05/07 13:41:27;;;;;;;5.78;5.07;;;;;;;;;;755112;184;1023742;-70
2023/05/07 13:43:53;;;;;;;6.00;5.40;;;;;;;;;;760945;181;917444;-71
2023/05/07 13:46:18;;;;;;;9.30;6.90;;;;;;;;;;767226;181;919302;-70
2023/05/07 13:48:44;;;;;;;9.73;5.97;;;;;;;;;;766754;183;940836;-70
2023/05/07 13:51:10;;;;;;;9.40;5.40;;;;;;;;;;767041;180;815617;-71
2023/05/07 13:53:36;;;;;;;9.50;6.47;;;;;;;;;;767667;181;810445;-71
2023/05/07 13:56:04;;;;;;;8.50;5.67;;;;;;;;;;765196;180;818201;-71
2023/05/07 13:58:28;;;;;;;8.90;7.43;;;;;;;;;;766758;181;861126;-71
2023/05/07 14:00:54;;;;;;;11.83;6.63;;;;;;;;;;766514;182;816410;-71
2023/05/07 14:03:19;;;;;;;13.57;9.07;;;;;;;;;;753939;181;918836;-71
2023/05/07 14:05:45;;;;;;;13.70;8.63;;;;;;;;;;756971;181;818992;-70
2023/05/07 14:08:13;;;;;;;11.33;7.67;;;;;;;;;;760965;181;918662;-70